createdAt,value
2022-07-30T00:00:02.234Z,42.56
2022-07-30T00:00:33.883Z,42.35
2022-07-30T00:01:05.610Z,42.62
2022-07-30T00:01:37.268Z,42.65
2022-07-30T00:02:08.901Z,42.63
2022-07-30T00:02:40.419Z,42.59
2022-07-30T00:03:12.076Z,42.65
2022-07-30T00:03:43.776Z,42.40
2022-07-30T00:04:15.428Z,42.50
2022-07-30T00:04:46.906Z,42.74
2022-07-30T00:05:18.469Z,42.68
2022-07-30T00:05:50.058Z,42.74
2022-07-30T00:06:21.599Z,42.59
2022-07-30T00:06:53.099Z,42.44
2022-07-30T00:07:24.721Z,42.58
2022-07-30T00:07:56.228Z,42.64
2022-07-30T00:08:27.773Z,42.73
2022-07-30T00:08:59.337Z,42.38
2022-07-30T00:09:34.241Z,42.66
2022-07-30T00:10:07.828Z,42.75
2022-07-30T00:10:39.395Z,42.51
2022-07-30T00:11:10.865Z,42.67
2022-07-30T00:11:42.316Z,42.56
2022-07-30T00:12:13.803Z,42.73
2022-07-30T00:12:45.338Z,42.53
2022-07-30T00:13:17.046Z,42.64
2022-07-30T00:13:48.632Z,42.30
2022-07-30T00:14:20.076Z,42.58
2022-07-30T00:14:51.588Z,42.67
2022-07-30T00:15:25.735Z,42.51
2022-07-30T00:15:57.238Z,42.70
2022-07-30T00:16:28.822Z,42.50
2022-07-30T00:17:00.428Z,42.64
2022-07-30T00:17:32.322Z,42.39
2022-07-30T00:18:03.835Z,42.53
2022-07-30T00:18:36.232Z,42.59
2022-07-30T00:19:08.579Z,42.73
2022-07-30T00:19:40.242Z,42.59
2022-07-30T00:20:11.862Z,42.41
2022-07-30T00:20:45.485Z,42.67
2022-07-30T00:21:34.597Z,42.78
2022-07-30T00:22:08.443Z,42.74
2022-07-30T00:22:40.029Z,42.64
2022-07-30T00:23:11.553Z,42.62
2022-07-30T00:23:43.070Z,42.72
2022-07-30T00:24:32.721Z,42.47
2022-07-30T00:25:04.278Z,42.72
2022-07-30T00:25:36.088Z,42.70
2022-07-30T00:26:07.588Z,42.76
2022-07-30T00:26:39.061Z,42.74
2022-07-30T00:27:10.591Z,42.67
2022-07-30T00:27:42.195Z,42.62
2022-07-30T00:28:13.761Z,42.67
2022-07-30T00:28:45.261Z,42.76
2022-07-30T00:29:16.819Z,42.80
2022-07-30T00:29:48.362Z,42.79
2022-07-30T00:30:19.876Z,42.76
2022-07-30T00:30:54.994Z,42.82
2022-07-30T00:31:27.935Z,42.54
2022-07-30T00:31:59.553Z,42.62
2022-07-30T00:32:31.162Z,42.50
2022-07-30T00:33:02.894Z,42.81
2022-07-30T00:33:34.592Z,42.67
2022-07-30T00:34:06.185Z,42.76
2022-07-30T00:34:37.697Z,42.57
2022-07-30T00:35:09.172Z,42.56
2022-07-30T00:35:40.686Z,42.62
2022-07-30T00:36:12.156Z,42.59
2022-07-30T00:36:43.637Z,42.84
2022-07-30T00:37:15.193Z,42.75
2022-07-30T00:37:46.624Z,42.70
2022-07-30T00:38:18.125Z,42.89
2022-07-30T00:38:49.702Z,42.89
2022-07-30T00:39:21.153Z,42.68
2022-07-30T00:39:52.566Z,42.84
2022-07-30T00:40:24.035Z,42.92
2022-07-30T00:40:55.491Z,42.59
2022-07-30T00:41:27.034Z,42.91
2022-07-30T00:41:58.481Z,42.66
2022-07-30T00:42:29.982Z,42.96
2022-07-30T00:43:01.418Z,42.84
2022-07-30T00:43:32.984Z,42.72
2022-07-30T00:44:04.523Z,42.96
2022-07-30T00:44:36.052Z,42.68
2022-07-30T00:45:12.512Z,42.91
2022-07-30T00:45:44.033Z,42.80
2022-07-30T00:46:15.507Z,42.76
2022-07-30T00:46:47.040Z,42.63
2022-07-30T00:47:18.478Z,42.88
2022-07-30T00:47:49.919Z,42.79
2022-07-30T00:48:21.445Z,42.72
2022-07-30T00:48:52.982Z,42.67
2022-07-30T00:49:24.565Z,42.80
2022-07-30T00:49:56.056Z,42.84
2022-07-30T00:50:27.569Z,42.96
2022-07-30T00:50:59.018Z,42.73
2022-07-30T00:51:30.589Z,42.68
2022-07-30T00:52:02.617Z,42.80
2022-07-30T00:52:34.136Z,42.75
2022-07-30T00:53:05.609Z,42.98
2022-07-30T00:53:37.017Z,42.79
2022-07-30T00:54:08.595Z,43.05
2022-07-30T00:54:40.030Z,42.97
2022-07-30T00:55:11.529Z,42.71
2022-07-30T00:55:43.003Z,42.73
2022-07-30T00:56:14.445Z,43.02
2022-07-30T00:56:45.948Z,42.88
2022-07-30T00:57:17.389Z,42.79
2022-07-30T00:57:48.869Z,42.82
2022-07-30T00:58:21.557Z,42.71
2022-07-30T00:58:53.031Z,42.87
2022-07-30T00:59:24.655Z,42.70
2022-07-30T00:59:56.088Z,42.80
2022-07-30T01:00:27.542Z,42.92
2022-07-30T01:00:59.011Z,43.07
2022-07-30T01:01:30.562Z,42.79
2022-07-30T01:02:02.133Z,42.93
2022-07-30T01:02:33.687Z,42.96
2022-07-30T01:03:05.164Z,42.95
2022-07-30T01:03:36.694Z,42.85
2022-07-30T01:04:08.122Z,42.95
2022-07-30T01:04:39.603Z,42.73
2022-07-30T01:05:11.038Z,42.85
2022-07-30T01:05:42.479Z,43.06
2022-07-30T01:06:14.510Z,42.89
2022-07-30T01:06:46.229Z,42.96
2022-07-30T01:07:17.682Z,42.71
2022-07-30T01:07:49.155Z,42.97
2022-07-30T01:08:20.598Z,42.97
2022-07-30T01:08:52.197Z,42.91
2022-07-30T01:09:23.595Z,42.64
2022-07-30T01:10:49.943Z,42.96
2022-07-30T01:11:36.816Z,42.73
2022-07-30T01:12:22.093Z,42.82
2022-07-30T01:13:08.756Z,42.81
2022-07-30T01:13:54.261Z,43.01
2022-07-30T01:14:37.492Z,42.87
2022-07-30T01:15:24.123Z,42.95
2022-07-30T01:16:08.523Z,42.91
2022-07-30T01:16:55.890Z,42.89
2022-07-30T01:17:41.547Z,42.63
2022-07-30T01:18:26.286Z,42.93
2022-07-30T01:19:09.731Z,42.70
2022-07-30T01:19:56.273Z,42.76
2022-07-30T01:20:40.102Z,42.92
2022-07-30T01:21:24.668Z,42.70
2022-07-30T01:22:08.189Z,42.81
2022-07-30T01:22:52.648Z,42.90
2022-07-30T01:23:35.165Z,42.71
2022-07-30T01:24:16.723Z,42.89
2022-07-30T01:25:01.050Z,42.66
2022-07-30T01:25:45.851Z,42.69
2022-07-30T01:26:29.612Z,42.67
2022-07-30T01:27:13.651Z,42.67
2022-07-30T01:27:59.091Z,42.81
2022-07-30T01:28:43.970Z,42.72
2022-07-30T01:29:25.566Z,42.99
2022-07-30T01:30:10.482Z,42.78
2022-07-30T01:30:55.537Z,42.89
2022-07-30T01:31:40.216Z,42.72
2022-07-30T01:32:26.632Z,42.98
2022-07-30T01:33:10.149Z,42.94
2022-07-30T01:33:56.027Z,42.75
2022-07-30T01:34:46.049Z,42.67
2022-07-30T01:35:31.119Z,42.91
2022-07-30T01:36:14.112Z,42.92
2022-07-30T01:36:58.757Z,42.88
2022-07-30T01:37:43.158Z,42.65
2022-07-30T01:38:25.697Z,42.81
2022-07-30T01:39:10.157Z,42.96
2022-07-30T01:39:53.967Z,42.72
2022-07-30T01:40:38.669Z,42.75
2022-07-30T01:41:21.281Z,42.87
2022-07-30T01:42:04.836Z,42.83
2022-07-30T01:42:49.088Z,42.63
2022-07-30T01:43:32.165Z,42.95
2022-07-30T01:44:15.627Z,42.71
2022-07-30T01:45:04.568Z,42.78
2022-07-30T01:45:49.318Z,42.65
2022-07-30T01:46:33.815Z,42.86
2022-07-30T01:47:18.258Z,42.69
2022-07-30T01:48:05.783Z,42.71
2022-07-30T01:48:50.514Z,42.76
2022-07-30T01:49:35.538Z,42.91
2022-07-30T01:50:18.614Z,42.75
2022-07-30T01:51:03.996Z,42.84
2022-07-30T01:51:49.927Z,42.72
2022-07-30T01:52:36.709Z,42.90
2022-07-30T01:53:22.105Z,42.62
2022-07-30T01:54:06.553Z,42.58
2022-07-30T01:54:50.310Z,42.83
2022-07-30T01:55:34.924Z,42.61
2022-07-30T01:56:24.943Z,42.87
2022-07-30T01:57:08.592Z,42.88
2022-07-30T01:57:54.821Z,42.62
2022-07-30T01:58:42.887Z,42.59
2022-07-30T01:59:30.480Z,42.87
2022-07-30T02:00:15.891Z,42.82
2022-07-30T02:01:04.165Z,42.90
2022-07-30T02:01:48.408Z,42.86
2022-07-30T02:02:32.393Z,42.72
2022-07-30T02:03:18.995Z,42.57
2022-07-30T02:04:04.741Z,42.58
2022-07-30T02:04:47.446Z,42.60
2022-07-30T02:05:32.105Z,42.62
2022-07-30T02:06:21.077Z,42.84
2022-07-30T02:07:05.532Z,42.83
2022-07-30T02:07:48.501Z,42.69
2022-07-30T02:08:38.056Z,43.00
2022-07-30T02:09:24.186Z,42.83
2022-07-30T02:10:09.692Z,42.62
2022-07-30T02:10:55.436Z,42.88
2022-07-30T02:11:40.117Z,42.82
2022-07-30T02:12:26.308Z,42.54
2022-07-30T02:13:10.881Z,42.80
2022-07-30T02:13:56.219Z,42.58
2022-07-30T02:14:43.346Z,42.62
2022-07-30T02:15:29.585Z,42.79
2022-07-30T02:16:12.678Z,42.85
2022-07-30T02:16:54.889Z,42.75
2022-07-30T02:17:39.853Z,42.90
2022-07-30T02:18:27.670Z,42.72
2022-07-30T02:19:11.503Z,42.81
2022-07-30T02:19:56.105Z,42.79
2022-07-30T02:20:38.610Z,42.87
2022-07-30T02:21:23.631Z,42.56
2022-07-30T02:22:12.744Z,42.73
2022-07-30T02:22:57.704Z,42.84
2022-07-30T02:23:40.944Z,42.54
2022-07-30T02:24:24.639Z,42.57
2022-07-30T02:25:08.578Z,42.54
2022-07-30T02:25:53.304Z,42.78
2022-07-30T02:26:37.933Z,42.48
2022-07-30T02:27:23.507Z,42.77
2022-07-30T02:28:07.004Z,42.80
2022-07-30T02:28:52.055Z,42.59
2022-07-30T02:29:36.902Z,42.56
2022-07-30T02:30:23.536Z,42.99
2022-07-30T02:31:17.333Z,42.49
2022-07-30T02:32:01.380Z,42.70
2022-07-30T02:32:47.530Z,42.51
2022-07-30T02:33:31.160Z,42.75
2022-07-30T02:34:14.919Z,42.66
2022-07-30T02:34:59.644Z,42.59
2022-07-30T02:35:41.603Z,42.66
2022-07-30T02:36:25.476Z,42.46
2022-07-30T02:37:09.150Z,42.45
2022-07-30T02:37:53.794Z,42.70
2022-07-30T02:38:36.651Z,42.55
2022-07-30T02:39:21.943Z,42.50
2022-07-30T02:40:09.291Z,42.76
2022-07-30T02:40:50.334Z,42.63
2022-07-30T02:41:34.031Z,42.75
2022-07-30T02:42:18.743Z,42.40
2022-07-30T02:43:04.805Z,42.72
2022-07-30T02:43:48.994Z,42.45
2022-07-30T02:44:34.462Z,42.66
2022-07-30T02:45:17.634Z,42.58
2022-07-30T02:45:59.529Z,42.77
2022-07-30T02:46:44.939Z,42.62
2022-07-30T02:47:32.024Z,42.70
2022-07-30T02:48:32.965Z,42.68
2022-07-30T02:49:18.574Z,42.58
2022-07-30T02:50:04.093Z,42.58
2022-07-30T02:50:46.411Z,42.50
2022-07-30T02:51:28.855Z,42.73
2022-07-30T02:52:16.884Z,42.72
2022-07-30T02:53:04.277Z,42.59
2022-07-30T02:53:48.113Z,42.70
2022-07-30T02:54:35.547Z,42.49
2022-07-30T02:55:20.933Z,42.67
2022-07-30T02:56:05.598Z,42.66
2022-07-30T02:56:47.742Z,42.49
2022-07-30T02:57:32.137Z,42.71
2022-07-30T02:58:15.860Z,42.49
2022-07-30T02:59:00.066Z,42.33
2022-07-30T02:59:43.867Z,42.39
2022-07-30T03:00:26.907Z,42.64
2022-07-30T03:01:10.249Z,42.39
2022-07-30T03:01:52.599Z,42.41
2022-07-30T03:02:35.050Z,42.68
2022-07-30T03:03:20.319Z,42.59
2022-07-30T03:04:03.808Z,42.45
2022-07-30T03:04:49.596Z,42.64
2022-07-30T03:05:32.344Z,42.66
2022-07-30T03:06:16.615Z,42.71
2022-07-30T03:07:01.011Z,42.38
2022-07-30T03:07:43.893Z,42.59
2022-07-30T03:08:27.194Z,42.71
2022-07-30T03:09:17.390Z,42.39
2022-07-30T03:10:01.617Z,42.68
2022-07-30T03:10:45.450Z,42.65
2022-07-30T03:11:29.763Z,42.68
2022-07-30T03:12:14.396Z,42.65
2022-07-30T03:13:01.907Z,42.69
2022-07-30T03:13:45.767Z,42.26
2022-07-30T03:14:29.392Z,42.66
2022-07-30T03:15:13.830Z,42.67
2022-07-30T03:15:59.317Z,42.36
2022-07-30T03:16:44.787Z,42.37
2022-07-30T03:17:36.325Z,42.43
2022-07-30T03:18:20.230Z,42.51
2022-07-30T03:19:06.014Z,42.72
2022-07-30T03:19:50.559Z,42.31
2022-07-30T03:20:35.369Z,42.53
2022-07-30T03:21:22.064Z,42.59
2022-07-30T03:22:07.297Z,42.64
2022-07-30T03:22:56.238Z,42.34
2022-07-30T03:23:41.618Z,42.69
2022-07-30T03:24:26.603Z,42.35
2022-07-30T03:25:11.268Z,42.50
2022-07-30T03:25:56.440Z,42.54
2022-07-30T03:26:42.103Z,42.59
2022-07-30T03:27:27.032Z,42.28
2022-07-30T03:28:18.067Z,42.59
2022-07-30T03:29:03.154Z,42.57
2022-07-30T03:29:50.343Z,42.56
2022-07-30T03:30:34.439Z,42.44
2022-07-30T03:31:18.233Z,42.57
2022-07-30T03:32:02.647Z,42.37
2022-07-30T03:32:47.376Z,42.31
2022-07-30T03:33:38.092Z,42.23
2022-07-30T03:34:21.116Z,42.50
2022-07-30T03:35:06.677Z,42.49
2022-07-30T03:35:51.613Z,42.35
2022-07-30T03:36:36.663Z,42.56
2022-07-30T03:37:23.330Z,42.27
2022-07-30T03:38:08.293Z,42.28
2022-07-30T03:38:50.413Z,42.33
2022-07-30T03:39:35.790Z,42.57
2022-07-30T03:40:22.647Z,42.56
2022-07-30T03:41:09.551Z,42.34
2022-07-30T03:41:56.985Z,42.47
2022-07-30T03:42:42.904Z,42.17
2022-07-30T03:43:33.234Z,42.35
2022-07-30T03:44:14.483Z,42.44
2022-07-30T03:44:59.168Z,42.52
2022-07-30T03:45:43.787Z,42.23
2022-07-30T03:46:24.405Z,42.51
2022-07-30T03:47:11.367Z,42.25
2022-07-30T03:47:56.828Z,42.49
2022-07-30T03:48:42.315Z,42.47
2022-07-30T03:49:29.283Z,42.48
2022-07-30T03:50:15.858Z,42.41
2022-07-30T03:51:00.415Z,42.22
2022-07-30T03:51:42.662Z,42.25
2022-07-30T03:52:28.227Z,42.47
2022-07-30T03:53:11.615Z,42.42
2022-07-30T03:53:55.398Z,42.32
2022-07-30T03:54:37.906Z,42.31
2022-07-30T03:55:20.934Z,42.49
2022-07-30T03:56:04.657Z,42.35
2022-07-30T03:56:51.352Z,42.24
2022-07-30T03:57:35.875Z,42.16
2022-07-30T03:58:19.161Z,42.40
2022-07-30T03:59:07.674Z,42.39
2022-07-30T03:59:52.866Z,42.27
2022-07-30T04:00:35.440Z,42.18
2022-07-30T04:01:19.829Z,42.44
2022-07-30T04:02:09.259Z,42.37
2022-07-30T04:02:54.449Z,42.07
2022-07-30T04:03:39.648Z,42.46
2022-07-30T04:04:26.417Z,42.08
2022-07-30T04:05:13.270Z,42.46
2022-07-30T04:05:58.487Z,42.33
2022-07-30T04:06:45.802Z,42.21
2022-07-30T04:07:30.735Z,42.38
2022-07-30T04:08:15.495Z,42.41
2022-07-30T04:09:01.622Z,42.34
2022-07-30T04:09:48.542Z,42.23
2022-07-30T04:10:35.604Z,42.18
2022-07-30T04:11:21.531Z,42.29
2022-07-30T04:12:22.585Z,42.16
2022-07-30T04:13:07.751Z,42.43
2022-07-30T04:13:52.294Z,42.17
2022-07-30T04:14:40.040Z,42.26
2022-07-30T04:16:04.975Z,42.49
2022-07-30T04:16:39.240Z,42.26
2022-07-30T04:17:23.932Z,42.44
2022-07-30T04:18:08.678Z,42.34
2022-07-30T04:18:52.832Z,42.24
2022-07-30T04:19:36.119Z,42.14
2022-07-30T04:20:20.628Z,42.39
2022-07-30T04:21:06.210Z,42.29
2022-07-30T04:21:54.882Z,42.33
2022-07-30T04:22:41.281Z,42.17
2022-07-30T04:23:24.179Z,42.36
2022-07-30T04:24:08.888Z,42.44
2022-07-30T04:24:53.760Z,42.43
2022-07-30T04:25:40.737Z,42.31
2022-07-30T04:26:26.744Z,42.30
2022-07-30T04:27:07.392Z,42.29
2022-07-30T04:28:01.918Z,42.10
2022-07-30T04:28:46.945Z,42.33
2022-07-30T04:29:34.155Z,42.41
2022-07-30T04:30:18.964Z,42.21
2022-07-30T04:31:03.044Z,42.15
2022-07-30T04:31:48.815Z,42.11
2022-07-30T04:32:34.260Z,42.15
2022-07-30T04:33:20.881Z,42.08
2022-07-30T04:34:05.692Z,42.26
2022-07-30T04:34:51.245Z,42.41
2022-07-30T04:35:50.298Z,42.34
2022-07-30T04:36:34.382Z,42.19
2022-07-30T04:37:14.977Z,42.20
2022-07-30T04:38:00.317Z,42.19
2022-07-30T04:38:43.697Z,42.28
2022-07-30T04:39:28.118Z,42.32
2022-07-30T04:40:11.958Z,42.38
2022-07-30T04:40:56.171Z,42.35
2022-07-30T04:41:49.625Z,42.04
2022-07-30T04:42:30.868Z,42.04
2022-07-30T04:43:13.596Z,42.18
2022-07-30T04:44:01.182Z,42.29
2022-07-30T04:44:44.037Z,42.12
2022-07-30T04:45:27.927Z,42.07
2022-07-30T04:46:10.969Z,42.15
2022-07-30T04:46:55.399Z,42.30
2022-07-30T04:47:44.213Z,42.09
2022-07-30T04:48:28.309Z,42.12
2022-07-30T04:49:11.755Z,42.29
2022-07-30T04:49:56.621Z,42.00
2022-07-30T04:50:41.363Z,42.07
2022-07-30T04:51:25.133Z,42.18
2022-07-30T04:52:10.166Z,42.42
2022-07-30T04:52:55.431Z,42.33
2022-07-30T04:53:41.609Z,42.01
2022-07-30T04:54:28.553Z,42.21
2022-07-30T04:55:13.381Z,42.32
2022-07-30T04:55:57.584Z,42.30
2022-07-30T04:56:42.162Z,42.01
2022-07-30T04:57:32.514Z,42.19
2022-07-30T04:58:17.437Z,42.13
2022-07-30T04:59:04.099Z,42.21
2022-07-30T04:59:47.619Z,42.15
2022-07-30T05:00:32.538Z,41.87
2022-07-30T05:01:16.455Z,41.93
2022-07-30T05:01:59.619Z,42.25
2022-07-30T05:02:40.910Z,42.15
2022-07-30T05:03:25.955Z,42.13
2022-07-30T05:04:07.843Z,42.33
2022-07-30T05:04:51.461Z,42.19
2022-07-30T05:05:38.392Z,42.12
2022-07-30T05:06:24.304Z,42.19
2022-07-30T05:07:08.340Z,42.27
2022-07-30T05:07:50.504Z,42.02
2022-07-30T05:08:37.436Z,42.01
2022-07-30T05:09:25.145Z,42.16
2022-07-30T05:10:09.425Z,42.11
2022-07-30T05:10:53.684Z,42.01
2022-07-30T05:11:37.137Z,42.12
2022-07-30T05:12:19.761Z,41.96
2022-07-30T05:13:01.245Z,42.16
2022-07-30T05:13:46.314Z,42.28
2022-07-30T05:14:32.272Z,42.38
2022-07-30T05:15:16.946Z,42.15
2022-07-30T05:16:01.163Z,41.94
2022-07-30T05:16:46.359Z,42.33
2022-07-30T05:17:31.578Z,42.17
2022-07-30T05:18:14.509Z,42.26
2022-07-30T05:18:59.343Z,42.04
2022-07-30T05:19:41.248Z,42.17
2022-07-30T05:20:26.573Z,42.27
2022-07-30T05:21:11.005Z,42.33
2022-07-30T05:21:56.472Z,41.95
2022-07-30T05:22:42.749Z,42.12
2022-07-30T05:23:23.320Z,42.13
2022-07-30T05:24:07.311Z,42.04
2022-07-30T05:24:50.838Z,42.19
2022-07-30T05:25:35.288Z,42.08
2022-07-30T05:26:17.927Z,42.37
2022-07-30T05:27:01.872Z,42.07
2022-07-30T05:27:46.742Z,42.30
2022-07-30T05:28:29.012Z,42.13
2022-07-30T05:29:16.106Z,42.08
2022-07-30T05:30:03.364Z,42.20
2022-07-30T05:30:49.323Z,42.19
2022-07-30T05:31:37.407Z,42.33
2022-07-30T05:32:21.758Z,42.25
2022-07-30T05:33:13.351Z,42.42
2022-07-30T05:33:58.268Z,42.42
2022-07-30T05:34:41.781Z,42.30
2022-07-30T05:35:28.634Z,42.20
2022-07-30T05:36:15.371Z,42.38
2022-07-30T05:36:59.984Z,42.45
2022-07-30T05:37:45.242Z,42.29
2022-07-30T05:38:29.514Z,42.47
2022-07-30T05:39:13.855Z,42.44
2022-07-30T05:40:03.301Z,42.43
2022-07-30T05:40:46.941Z,42.30
2022-07-30T05:41:34.371Z,42.59
2022-07-30T05:42:22.203Z,42.58
2022-07-30T05:43:06.971Z,42.51
2022-07-30T05:43:56.156Z,42.53
2022-07-30T05:44:38.613Z,42.54
2022-07-30T05:45:23.492Z,42.47
2022-07-30T05:46:06.469Z,42.61
2022-07-30T05:46:50.328Z,42.46
2022-07-30T05:47:35.085Z,42.45
2022-07-30T05:48:19.243Z,42.36
2022-07-30T05:49:04.016Z,42.60
2022-07-30T05:49:48.010Z,42.34
2022-07-30T05:50:32.336Z,42.66
2022-07-30T05:51:16.392Z,42.67
2022-07-30T05:52:01.008Z,42.34
2022-07-30T05:52:44.939Z,42.63
2022-07-30T05:53:33.157Z,42.31
2022-07-30T05:54:18.110Z,42.63
2022-07-30T05:55:03.348Z,42.54
2022-07-30T05:55:47.378Z,42.44
2022-07-30T05:56:34.157Z,42.60
2022-07-30T05:57:20.601Z,42.64
2022-07-30T05:58:07.778Z,42.62
2022-07-30T05:58:57.364Z,42.73
2022-07-30T05:59:42.011Z,42.58
2022-07-30T06:00:26.614Z,42.53
2022-07-30T06:01:11.993Z,42.45
2022-07-30T06:01:56.681Z,42.46
2022-07-30T06:02:39.422Z,42.62
2022-07-30T06:03:20.033Z,42.43
2022-07-30T06:04:07.857Z,42.50
2022-07-30T06:04:50.805Z,42.54
2022-07-30T06:05:35.383Z,42.64
2022-07-30T06:06:22.749Z,42.72
2022-07-30T06:07:06.145Z,42.54
2022-07-30T06:07:51.243Z,42.70
2022-07-30T06:08:42.033Z,42.58
2022-07-30T06:09:36.282Z,42.63
2022-07-30T06:10:19.162Z,42.76
2022-07-30T06:11:05.243Z,42.71
2022-07-30T06:11:50.489Z,42.79
2022-07-30T06:12:35.660Z,42.70
2022-07-30T06:13:19.744Z,42.71
2022-07-30T06:14:02.572Z,42.77
2022-07-30T06:14:46.206Z,42.58
2022-07-30T06:15:30.933Z,42.88
2022-07-30T06:16:15.656Z,42.76
2022-07-30T06:16:58.955Z,42.85
2022-07-30T06:17:43.740Z,42.62
2022-07-30T06:18:33.318Z,42.66
2022-07-30T06:19:20.106Z,42.95
2022-07-30T06:20:05.152Z,42.93
2022-07-30T06:20:52.344Z,42.93
2022-07-30T06:22:06.160Z,42.98
2022-07-30T06:22:35.644Z,42.77
2022-07-30T06:23:19.587Z,42.85
2022-07-30T06:24:01.828Z,43.06
2022-07-30T06:24:48.271Z,42.84
2022-07-30T06:25:33.781Z,42.84
2022-07-30T06:26:21.018Z,42.94
2022-07-30T06:27:04.018Z,42.80
2022-07-30T06:27:48.164Z,42.76
2022-07-30T06:28:37.449Z,42.84
2022-07-30T06:29:20.430Z,42.83
2022-07-30T06:30:03.311Z,43.10
2022-07-30T06:30:47.578Z,43.04
2022-07-30T06:31:32.551Z,43.08
2022-07-30T06:32:15.761Z,43.05
2022-07-30T06:32:59.442Z,43.04
2022-07-30T06:33:41.085Z,42.98
2022-07-30T06:34:25.902Z,43.12
2022-07-30T06:35:11.452Z,42.74
2022-07-30T06:35:55.892Z,42.94
2022-07-30T06:36:39.504Z,43.06
2022-07-30T06:37:24.553Z,43.00
2022-07-30T06:38:24.039Z,43.01
2022-07-30T06:39:06.573Z,42.81
2022-07-30T06:39:57.598Z,42.81
2022-07-30T06:40:40.948Z,42.84
2022-07-30T06:41:26.886Z,42.89
2022-07-30T06:42:11.832Z,43.13
2022-07-30T06:42:56.271Z,43.15
2022-07-30T06:43:35.629Z,42.96
2022-07-30T06:44:20.785Z,43.17
2022-07-30T06:45:05.749Z,43.29
2022-07-30T06:45:52.521Z,43.29
2022-07-30T06:46:35.854Z,43.35
2022-07-30T06:47:19.299Z,43.20
2022-07-30T06:48:03.846Z,43.08
2022-07-30T06:48:46.985Z,43.09
2022-07-30T06:49:29.813Z,43.29
2022-07-30T06:50:14.381Z,43.13
2022-07-30T06:50:59.362Z,43.10
2022-07-30T06:51:46.464Z,43.19
2022-07-30T06:52:32.241Z,43.20
2022-07-30T06:53:19.622Z,43.28
2022-07-30T06:54:02.890Z,43.27
2022-07-30T06:54:50.435Z,43.40
2022-07-30T06:55:38.203Z,43.15
2022-07-30T06:56:24.804Z,43.19
2022-07-30T06:57:09.585Z,43.36
2022-07-30T06:57:54.067Z,43.29
2022-07-30T06:58:38.461Z,43.30
2022-07-30T06:59:21.407Z,43.15
2022-07-30T07:00:04.829Z,43.20
2022-07-30T07:00:51.532Z,43.13
2022-07-30T07:01:35.174Z,43.19
2022-07-30T07:02:18.952Z,43.43
2022-07-30T07:03:08.643Z,43.37
2022-07-30T07:03:51.637Z,43.38
2022-07-30T07:04:36.571Z,43.41
2022-07-30T07:05:20.260Z,43.45
2022-07-30T07:06:03.622Z,43.39
2022-07-30T07:06:46.482Z,43.51
2022-07-30T07:07:41.335Z,43.51
2022-07-30T07:08:25.227Z,43.52
2022-07-30T07:09:06.850Z,43.33
2022-07-30T07:09:53.813Z,43.36
2022-07-30T07:11:18.411Z,43.23
2022-07-30T07:12:06.642Z,43.50
2022-07-30T07:12:57.355Z,43.54
2022-07-30T07:13:44.308Z,43.53
2022-07-30T07:14:30.842Z,43.38
2022-07-30T07:15:19.411Z,43.43
2022-07-30T07:16:07.910Z,43.43
2022-07-30T07:16:56.206Z,43.27
2022-07-30T07:17:42.584Z,43.44
2022-07-30T07:18:33.317Z,43.43
2022-07-30T07:20:01.493Z,43.52
2022-07-30T07:20:20.893Z,43.40
2022-07-30T07:21:07.074Z,43.62
2022-07-30T07:21:55.137Z,43.63
2022-07-30T07:22:42.124Z,43.36
2022-07-30T07:23:41.835Z,43.31
2022-07-30T07:24:25.102Z,43.25
2022-07-30T07:25:19.354Z,43.58
2022-07-30T07:26:05.099Z,43.28
2022-07-30T07:26:48.259Z,43.37
2022-07-30T07:27:35.145Z,43.52
2022-07-30T07:28:22.703Z,43.54
2022-07-30T07:29:18.679Z,43.55
2022-07-30T07:30:12.053Z,43.47
2022-07-30T07:30:59.138Z,43.66
2022-07-30T07:32:05.527Z,43.72
2022-07-30T07:32:51.973Z,43.75
2022-07-30T07:33:38.105Z,43.55
2022-07-30T07:34:24.429Z,43.72
2022-07-30T07:35:07.810Z,43.73
2022-07-30T07:35:55.481Z,43.62
2022-07-30T07:36:41.717Z,43.55
2022-07-30T07:37:28.619Z,43.52
2022-07-30T07:38:12.997Z,43.66
2022-07-30T07:38:58.513Z,43.54
2022-07-30T07:39:50.771Z,43.40
2022-07-30T07:40:37.935Z,43.37
2022-07-30T07:41:22.488Z,43.30
2022-07-30T07:42:42.794Z,43.38
2022-07-30T07:43:31.122Z,43.30
2022-07-30T07:44:16.965Z,43.40
2022-07-30T07:44:59.345Z,43.46
2022-07-30T07:45:46.153Z,43.32
2022-07-30T07:46:33.650Z,43.53
2022-07-30T07:47:18.223Z,43.56
2022-07-30T07:48:03.218Z,43.44
2022-07-30T07:48:49.930Z,43.36
2022-07-30T07:49:36.060Z,43.46
2022-07-30T07:50:24.073Z,43.52
2022-07-30T07:51:14.097Z,43.61
2022-07-30T07:52:03.530Z,43.76
2022-07-30T07:52:49.003Z,43.54
2022-07-30T07:53:33.644Z,43.74
2022-07-30T07:54:22.144Z,43.88
2022-07-30T07:55:02.978Z,43.70
2022-07-30T07:55:47.804Z,43.63
2022-07-30T07:56:33.786Z,43.82
2022-07-30T07:57:21.330Z,43.66
2022-07-30T07:58:06.341Z,43.65
2022-07-30T07:58:52.792Z,43.65
2022-07-30T07:59:40.691Z,43.65
2022-07-30T08:00:25.998Z,43.84
2022-07-30T08:01:10.742Z,43.84
2022-07-30T08:01:57.222Z,43.73
2022-07-30T08:02:42.979Z,43.70
2022-07-30T08:03:27.898Z,43.70
2022-07-30T08:04:12.408Z,43.96
2022-07-30T08:04:59.610Z,43.84
2022-07-30T08:06:00.991Z,43.93
2022-07-30T08:06:45.965Z,43.87
2022-07-30T08:07:33.703Z,44.04
2022-07-30T08:08:19.790Z,44.10
2022-07-30T08:09:04.392Z,44.06
2022-07-30T08:09:48.346Z,44.06
2022-07-30T08:10:33.819Z,43.77
2022-07-30T08:11:16.021Z,44.03
2022-07-30T08:12:00.961Z,44.05
2022-07-30T08:12:46.578Z,44.01
2022-07-30T08:13:49.038Z,44.16
2022-07-30T08:14:36.141Z,43.99
2022-07-30T08:15:22.079Z,43.80
2022-07-30T08:16:07.800Z,44.05
2022-07-30T08:16:56.687Z,44.13
2022-07-30T08:17:45.220Z,44.01
2022-07-30T08:18:33.661Z,43.97
2022-07-30T08:19:21.878Z,44.13
2022-07-30T08:20:13.288Z,44.15
2022-07-30T08:20:59.453Z,44.23
2022-07-30T08:21:47.830Z,44.29
2022-07-30T08:22:34.053Z,44.01
2022-07-30T08:23:19.966Z,43.99
2022-07-30T08:24:05.031Z,44.24
2022-07-30T08:24:46.673Z,43.90
2022-07-30T08:25:32.246Z,44.09
2022-07-30T08:26:18.077Z,43.86
2022-07-30T08:27:04.611Z,43.88
2022-07-30T08:27:49.888Z,43.98
2022-07-30T08:28:36.701Z,44.18
2022-07-30T08:29:24.587Z,43.92
2022-07-30T08:30:10.371Z,44.24
2022-07-30T08:30:59.140Z,43.96
2022-07-30T08:31:46.460Z,44.09
2022-07-30T08:32:36.519Z,44.16
2022-07-30T08:33:24.221Z,44.17
2022-07-30T08:34:10.756Z,44.09
2022-07-30T08:34:56.144Z,44.07
2022-07-30T08:35:38.964Z,44.15
2022-07-30T08:36:32.622Z,43.97
2022-07-30T08:37:20.167Z,44.19
2022-07-30T08:38:04.176Z,44.15
2022-07-30T08:38:50.483Z,43.92
2022-07-30T08:39:39.531Z,44.05
2022-07-30T08:40:27.602Z,44.16
2022-07-30T08:41:18.882Z,44.22
2022-07-30T08:42:03.346Z,44.15
2022-07-30T08:42:49.032Z,44.20
2022-07-30T08:43:35.196Z,44.16
2022-07-30T08:44:22.752Z,44.19
2022-07-30T08:45:08.845Z,44.18
2022-07-30T08:45:57.322Z,43.94
2022-07-30T08:46:39.679Z,43.95
2022-07-30T08:47:25.685Z,43.91
2022-07-30T08:48:16.457Z,43.87
2022-07-30T08:49:07.804Z,44.00
2022-07-30T08:49:54.832Z,44.05
2022-07-30T08:50:41.465Z,43.87
2022-07-30T08:51:29.387Z,44.15
2022-07-30T08:52:22.999Z,44.12
2022-07-30T08:53:08.810Z,43.87
2022-07-30T08:53:53.724Z,43.91
2022-07-30T08:54:40.020Z,43.89
2022-07-30T08:55:22.647Z,43.84
2022-07-30T08:56:09.608Z,44.08
2022-07-30T08:56:55.945Z,44.04
2022-07-30T08:57:43.241Z,43.82
2022-07-30T08:58:28.288Z,43.83
2022-07-30T08:59:13.342Z,43.83
2022-07-30T09:00:02.843Z,44.12
2022-07-30T09:00:46.284Z,44.06
2022-07-30T09:01:33.738Z,43.81
2022-07-30T09:02:27.419Z,44.09
2022-07-30T09:03:10.653Z,43.81
2022-07-30T09:03:56.711Z,43.98
2022-07-30T09:04:43.961Z,43.82
2022-07-30T09:05:30.622Z,44.05
2022-07-30T09:06:20.612Z,43.79
2022-07-30T09:07:06.624Z,43.89
2022-07-30T09:07:53.281Z,43.90
2022-07-30T09:08:40.042Z,43.85
2022-07-30T09:09:25.997Z,43.89
2022-07-30T09:10:13.318Z,44.05
2022-07-30T09:11:06.899Z,43.98
2022-07-30T09:11:53.174Z,43.83
2022-07-30T09:12:41.770Z,43.79
2022-07-30T09:13:27.304Z,43.83
2022-07-30T09:14:16.141Z,43.85
2022-07-30T09:15:04.462Z,43.92
2022-07-30T09:15:53.480Z,44.05
2022-07-30T09:16:44.641Z,43.80
2022-07-30T09:17:32.945Z,43.96
2022-07-30T09:18:20.956Z,43.74
2022-07-30T09:19:06.362Z,44.00
2022-07-30T09:19:54.558Z,43.85
2022-07-30T09:20:40.017Z,43.74
2022-07-30T09:21:26.064Z,43.94